Time;durP1;ratioP1;P1;durP2;ratioP2;P2;SDS_P1;SDS_P2;PMS_P1;PMS_P2;Temp;Humidity;BMP_temperature;BMP_pressure;BME280_temperature;BME280_humidity;BME280_pressure;Samples;Min_cycle;Max_cycle;Signal;HPM_P1;HPM_P2
2021/04/06 00:00:59;;;;;;;6.82;1.48;;;1.30;90.20;;;;;;5048884;28;20033;-71
2021/04/06 00:03:28;;;;;;;4.80;1.30;;;1.30;90.10;;;;;;5050277;28;20504;-71
2021/04/06 00:06:02;;;;;;;4.35;1.10;;;1.30;90.10;;;;;;5049569;28;20021;-71
2021/04/06 00:08:30;;;;;;;5.90;1.55;;;1.30;90.10;;;;;;5044986;28;20029;-70
2021/04/06 00:11:03;;;;;;;5.75;1.10;;;1.30;90.30;;;;;;5026223;28;20554;-71
2021/04/06 00:13:34;;;;;;;7.75;1.60;;;1.30;90.30;;;;;;5047084;28;20060;-71
2021/04/06 00:16:05;;;;;;;6.85;1.48;;;1.30;90.20;;;;;;5049087;28;20025;-70
2021/04/06 00:18:31;;;;;;;;;;;1.30;90.30;;;;;;5045220;28;20113;-71
2021/04/06 00:21:01;;;;;;;4.05;1.67;;;1.30;90.30;;;;;;5049078;28;19995;-71
2021/04/06 00:23:30;;;;;;;5.30;1.17;;;1.20;90.20;;;;;;5049590;28;20017;-71
2021/04/06 00:25:57;;;;;;;4.60;1.17;;;1.20;90.30;;;;;;5045896;28;20148;-71
2021/04/06 00:28:34;;;;;;;5.10;1.20;;;1.20;90.20;;;;;;5045355;28;20398;-70
2021/04/06 00:31:03;;;;;;;9.50;1.60;;;1.20;90.30;;;;;;5048262;28;20033;-70
2021/04/06 00:33:37;;;;;;;7.68;1.33;;;1.20;90.30;;;;;;5048950;28;20443;-70
2021/04/06 00:36:04;;;;;;;5.80;1.40;;;1.20;90.40;;;;;;5032435;28;20033;-72
2021/04/06 00:38:33;;;;;;;5.40;1.10;;;1.20;90.40;;;;;;5049814;28;20048;-71
2021/04/06 00:41:03;;;;;;;5.18;0.98;;;1.10;90.50;;;;;;5050645;28;20383;-71
2021/04/06 00:43:38;;;;;;;4.70;1.07;;;1.10;90.40;;;;;;5049153;28;20053;-71
2021/04/06 00:46:07;;;;;;;7.25;1.27;;;1.10;90.60;;;;;;5048168;28;20518;-70
2021/04/06 00:48:33;;;;;;;5.70;1.67;;;1.10;90.50;;;;;;5047927;28;20108;-71
2021/04/06 00:51:09;;;;;;;5.53;0.98;;;1.10;90.50;;;;;;5026646;28;20036;-71
2021/04/06 00:53:51;;;;;;;7.25;1.00;;;1.10;90.60;;;;;;5047467;28;20021;-70
2021/04/06 00:56:17;;;;;;;4.35;0.82;;;1.10;90.40;;;;;;5049480;28;20107;-70
2021/04/06 00:58:44;;;;;;;8.13;1.83;;;1.10;90.50;;;;;;5034018;28;20482;-71
2021/04/06 01:01:10;;;;;;;6.55;1.23;;;1.10;90.50;;;;;;5051774;28;20029;-71
2021/04/06 01:03:40;;;;;;;6.70;1.08;;;1.10;90.50;;;;;;5052757;28;20029;-71
2021/04/06 01:06:07;;;;;;;2.50;0.70;;;1.10;90.50;;;;;;5053347;28;20029;-71
2021/04/06 01:08:37;;;;;;;9.68;1.00;;;1.10;90.50;;;;;;5051958;28;20029;-71
2021/04/06 01:11:07;;;;;;;3.28;1.08;;;1.10;90.50;;;;;;5051255;28;20032;-70
2021/04/06 01:13:36;;;;;;;4.68;0.90;;;1.10;90.50;;;;;;5052939;28;20089;-71
2021/04/06 01:16:03;;;;;;;4.07;0.90;;;1.10;90.50;;;;;;5051364;28;20033;-71
2021/04/06 01:18:30;;;;;;;4.45;0.90;;;1.10;90.60;;;;;;5051038;28;20036;-70
2021/04/06 01:20:56;;;;;;;4.63;1.00;;;1.10;90.60;;;;;;5051077;28;20025;-70
2021/04/06 01:23:26;;;;;;;3.88;1.20;;;1.10;90.70;;;;;;5052345;28;20029;-71
2021/04/06 01:25:56;;;;;;;4.43;1.02;;;1.00;90.70;;;;;;5049388;28;20518;-71
2021/04/06 01:28:27;;;;;;;5.18;1.30;;;1.00;90.80;;;;;;5052312;28;20037;-71
2021/04/06 01:30:53;;;;;;;6.10;1.10;;;1.10;90.90;;;;;;5051076;28;20028;-70
2021/04/06 01:33:22;;;;;;;2.20;0.85;;;1.10;90.90;;;;;;5052598;28;20470;-70
2021/04/06 01:35:53;;;;;;;2.70;1.02;;;1.00;90.90;;;;;;5049734;28;20036;-70
2021/04/06 01:38:22;;;;;;;3.42;1.00;;;1.10;90.90;;;;;;5052000;28;20210;-70
2021/04/06 01:40:49;;;;;;;6.38;1.90;;;1.10;91.20;;;;;;5048415;28;20463;-70
2021/04/06 01:43:17;;;;;;;4.93;1.20;;;1.10;90.90;;;;;;5049553;28;20029;-71
2021/04/06 01:45:44;;;;;;;5.00;1.48;;;1.10;90.90;;;;;;5047113;28;20146;-71
2021/04/06 01:48:14;;;;;;;5.95;1.40;;;1.00;90.90;;;;;;5051787;28;20021;-71
2021/04/06 01:50:43;;;;;;;5.40;0.85;;;1.00;91.00;;;;;;5035248;28;20072;-70
2021/04/06 01:53:10;;;;;;;3.60;1.38;;;1.00;91.10;;;;;;5033110;28;20067;-71
2021/04/06 01:55:38;;;;;;;3.75;1.13;;;1.00;91.10;;;;;;5049125;28;20060;-71
2021/04/06 01:58:05;;;;;;;6.55;1.30;;;1.00;91.10;;;;;;5052336;28;20029;-71
2021/04/06 02:03:05;;;;;;;5.53;1.38;;;1.00;91.00;;;;;;5050214;28;20024;-70
2021/04/06 02:05:31;;;;;;;3.88;0.95;;;1.00;91.00;;;;;;5050925;28;20114;-71
2021/04/06 02:08:03;;;;;;;5.38;1.00;;;1.00;91.10;;;;;;5051384;28;20080;-70
2021/04/06 02:10:29;;;;;;;2.38;1.00;;;1.00;91.20;;;;;;5050318;28;20514;-71
2021/04/06 02:12:54;;;;;;;2.95;0.93;;;1.00;91.20;;;;;;5052154;28;20118;-70
2021/04/06 02:15:20;;;;;;;5.32;1.13;;;1.00;91.20;;;;;;5050532;28;20404;-71
2021/04/06 02:17:53;;;;;;;4.20;1.30;;;1.00;91.20;;;;;;5048394;28;20154;-70
2021/04/06 02:20:24;;;;;;;5.85;1.23;;;1.00;91.20;;;;;;5052165;28;20631;-70
2021/04/06 02:22:57;;;;;;;;;;;1.00;91.10;;;;;;5049392;28;20079;-71
2021/04/06 02:25:23;;;;;;;8.60;1.48;;;1.00;91.30;;;;;;5047601;28;20290;-70
2021/04/06 02:27:51;;;;;;;9.35;1.70;;;1.00;91.40;;;;;;5051308;28;20025;-71
2021/04/06 02:30:18;;;;;;;4.93;1.60;;;1.00;91.50;;;;;;5048006;28;20021;-71
2021/04/06 02:32:43;;;;;;;7.28;1.30;;;1.00;91.40;;;;;;5051729;28;20541;-71
2021/04/06 02:35:12;;;;;;;8.55;1.75;;;1.00;91.50;;;;;;5049641;28;20100;-70
2021/04/06 02:37:42;;;;;;;3.00;1.40;;;1.10;91.50;;;;;;5050992;28;20084;-71
2021/04/06 02:40:10;;;;;;;4.25;1.13;;;1.10;91.40;;;;;;5049565;28;20033;-71
2021/04/06 02:42:44;;;;;;;4.88;1.50;;;1.20;91.60;;;;;;5051359;28;20036;-71
2021/04/06 02:45:14;;;;;;;5.35;1.60;;;1.20;91.90;;;;;;5051564;28;20082;-70
2021/04/06 02:47:47;;;;;;;6.55;2.10;;;1.20;92.20;;;;;;5049469;28;20421;-71
2021/04/06 02:50:24;;;;;;;6.78;1.67;;;1.20;92.60;;;;;;5048922;28;20028;-71
2021/04/06 02:52:50;;;;;;;6.15;1.70;;;1.30;92.80;;;;;;5047715;28;20025;-71
2021/04/06 02:55:17;;;;;;;4.68;2.03;;;1.30;93.10;;;;;;5047647;28;20051;-71
2021/04/06 02:57:48;;;;;;;6.38;1.92;;;1.20;93.40;;;;;;5050132;28;20617;-71
2021/04/06 03:00:34;;;;;;;8.63;1.80;;;1.30;93.60;;;;;;5048737;28;20270;-71
2021/04/06 03:03:13;;;;;;;9.38;1.58;;;1.20;93.70;;;;;;5031621;28;20033;-71
2021/04/06 03:05:40;;;;;;;8.70;2.22;;;1.30;93.70;;;;;;5046474;28;20801;-71
2021/04/06 03:08:06;;;;;;;6.35;2.17;;;1.30;93.80;;;;;;5049332;28;20033;-70
2021/04/06 03:10:34;;;;;;;4.72;1.95;;;1.30;93.50;;;;;;5051389;28;20032;-70
2021/04/06 03:13:09;;;;;;;8.48;1.80;;;1.30;93.50;;;;;;5048863;28;20603;-71
2021/04/06 03:15:44;;;;;;;9.55;2.03;;;1.30;93.70;;;;;;5007481;28;20028;-71
2021/04/06 03:18:13;;;;;;;6.43;2.05;;;1.40;93.70;;;;;;5049587;28;20025;-71
2021/04/06 03:20:41;;;;;;;10.10;2.20;;;1.40;93.70;;;;;;5048700;28;20489;-71
2021/04/06 03:23:08;;;;;;;6.97;2.78;;;1.40;93.80;;;;;;5050342;28;20033;-71
2021/04/06 03:25:37;;;;;;;7.78;2.70;;;1.40;93.80;;;;;;5045258;28;20029;-71
2021/04/06 03:28:11;;;;;;;11.70;3.83;;;1.40;93.90;;;;;;5050059;28;20037;-70
2021/04/06 03:30:38;;;;;;;10.63;3.97;;;1.40;93.80;;;;;;5047867;28;20024;-70
2021/04/06 03:33:06;;;;;;;10.40;4.28;;;1.50;93.80;;;;;;5030504;28;20058;-71
2021/04/06 03:35:33;;;;;;;10.57;3.92;;;1.50;93.80;;;;;;5030924;28;20466;-71
2021/04/06 03:38:01;;;;;;;11.05;3.75;;;1.50;93.80;;;;;;5050747;28;20024;-71
2021/04/06 03:40:30;;;;;;;7.95;3.28;;;1.50;93.80;;;;;;5047710;28;20044;-71
2021/04/06 03:43:11;;;;;;;12.30;3.40;;;1.50;93.70;;;;;;5050027;28;20108;-71
2021/04/06 03:45:56;;;;;;;7.03;3.28;;;1.50;93.70;;;;;;5050184;28;20477;-71
2021/04/06 03:48:24;;;;;;;8.82;2.88;;;1.50;93.50;;;;;;5044934;28;20789;-70
2021/04/06 03:50:50;;;;;;;5.55;2.38;;;1.50;93.50;;;;;;5049659;28;20028;-71
2021/04/06 03:53:16;;;;;;;10.45;2.97;;;1.50;93.40;;;;;;5051033;28;20082;-70
2021/04/06 03:55:43;;;;;;;9.70;2.65;;;1.50;93.40;;;;;;5049389;28;20041;-70
2021/04/06 03:58:17;;;;;;;14.65;3.13;;;1.50;93.40;;;;;;5048081;28;20057;-70
2021/04/06 04:00:42;;;;;;;10.00;3.00;;;1.50;93.30;;;;;;5029975;28;20086;-71
2021/04/06 04:03:08;;;;;;;10.48;2.60;;;1.50;93.30;;;;;;5048909;28;20044;-71
2021/04/06 04:05:34;;;;;;;8.60;3.08;;;1.40;93.40;;;;;;5031921;28;20047;-70
2021/04/06 04:08:01;;;;;;;9.05;2.70;;;1.40;93.50;;;;;;5050334;28;20017;-70
2021/04/06 04:10:27;;;;;;;9.07;2.40;;;1.40;93.50;;;;;;5048563;28;20452;-70
2021/04/06 04:12:54;;;;;;;11.15;2.50;;;1.40;93.50;;;;;;5049255;28;20037;-71
2021/04/06 04:15:20;;;;;;;8.85;2.40;;;1.40;93.50;;;;;;5046737;28;20033;-71
2021/04/06 04:17:48;;;;;;;8.30;2.80;;;1.40;93.50;;;;;;5045613;28;20034;-71
2021/04/06 04:20:15;;;;;;;12.20;3.20;;;1.40;93.50;;;;;;5029059;28;20083;-72
2021/04/06 04:22:41;;;;;;;8.85;2.15;;;1.40;93.50;;;;;;5029371;28;20115;-70
2021/04/06 04:25:11;;;;;;;7.25;1.95;;;1.40;93.60;;;;;;5046385;28;20451;-70
2021/04/06 04:27:37;;;;;;;11.18;3.15;;;1.40;93.60;;;;;;5049499;28;20104;-71
2021/04/06 04:30:05;;;;;;;10.55;3.00;;;1.40;93.50;;;;;;5046903;28;20037;-71
2021/04/06 04:32:31;;;;;;;8.95;2.17;;;1.40;93.50;;;;;;5047379;28;20029;-71
2021/04/06 04:35:00;;;;;;;11.98;2.65;;;1.40;93.60;;;;;;5052487;28;20032;-72
2021/04/06 04:37:26;;;;;;;13.65;3.35;;;1.40;93.70;;;;;;5053992;28;20108;-71
2021/04/06 04:39:51;;;;;;;14.70;3.85;;;1.40;93.60;;;;;;5050005;28;20113;-71
2021/04/06 04:42:17;;;;;;;9.27;3.38;;;1.50;93.70;;;;;;5054299;28;20482;-71
2021/04/06 04:44:43;;;;;;;10.95;3.00;;;1.50;93.70;;;;;;5053855;28;20017;-73
2021/04/06 04:47:09;;;;;;;17.40;3.65;;;1.50;93.70;;;;;;5053127;28;20513;-72
2021/04/06 04:49:35;;;;;;;12.07;3.53;;;1.50;93.70;;;;;;5051705;28;20079;-72
2021/04/06 04:52:00;;;;;;;14.00;3.63;;;1.50;93.70;;;;;;5053613;28;20025;-71
2021/04/06 04:54:27;;;;;;;8.50;3.55;;;1.50;93.60;;;;;;5049840;28;20100;-71
2021/04/06 04:56:56;;;;;;;19.73;3.17;;;1.60;93.70;;;;;;5051440;28;20404;-71
2021/04/06 04:59:21;;;;;;;15.02;3.03;;;1.60;93.50;;;;;;5034306;28;20029;-71
2021/04/06 05:01:48;;;;;;;11.98;2.72;;;1.60;93.50;;;;;;5050199;28;20040;-72
2021/04/06 05:04:13;;;;;;;16.85;2.85;;;1.60;93.30;;;;;;5051920;28;20025;-71
2021/04/06 05:06:39;;;;;;;11.52;2.70;;;1.70;93.40;;;;;;5048107;28;20492;-71
2021/04/06 05:09:06;;;;;;;12.45;2.88;;;1.60;93.40;;;;;;5051882;28;20037;-71
2021/04/06 05:11:32;;;;;;;15.65;2.63;;;1.60;93.20;;;;;;5051813;28;20033;-71
2021/04/06 05:13:57;;;;;;;13.50;2.20;;;1.60;93.10;;;;;;5050658;28;20441;-70
2021/04/06 05:16:23;;;;;;;12.10;2.92;;;1.60;93.00;;;;;;5044606;28;20105;-71
2021/04/06 05:18:49;;;;;;;12.38;2.40;;;1.60;93.00;;;;;;5069973;22;20033;-68
2021/04/06 05:21:15;;;;;;;14.02;4.20;;;1.60;93.00;;;;;;5051011;28;20533;-69
2021/04/06 05:23:41;;;;;;;8.85;2.70;;;1.60;93.00;;;;;;5049080;28;20039;-67
2021/04/06 05:26:08;;;;;;;25.75;5.25;;;1.60;93.00;;;;;;5052237;28;20397;-68
2021/04/06 05:28:34;;;;;;;20.33;3.20;;;1.60;93.00;;;;;;5051286;28;20040;-69
2021/04/06 05:31:00;;;;;;;10.75;2.85;;;1.60;93.00;;;;;;5051520;28;20033;-67
2021/04/06 05:33:26;;;;;;;20.77;3.65;;;1.60;93.00;;;;;;5051804;28;20040;-68
2021/04/06 05:35:52;;;;;;;19.02;3.65;;;1.70;93.00;;;;;;5050830;28;20497;-68
2021/04/06 05:38:18;;;;;;;13.98;3.00;;;1.70;93.00;;;;;;5051520;28;20041;-68
2021/04/06 05:40:44;;;;;;;18.85;3.35;;;1.70;93.00;;;;;;5046407;28;20031;-67
2021/04/06 05:43:13;;;;;;;17.85;4.88;;;1.70;93.00;;;;;;5034335;28;20036;-69
2021/04/06 05:45:42;;;;;;;14.10;3.08;;;1.90;92.50;;;;;;5051390;28;20052;-68
2021/04/06 05:48:14;;;;;;;14.55;2.63;;;2.10;92.20;;;;;;5050772;28;20671;-67
2021/04/06 05:50:44;;;;;;;12.57;3.58;;;2.10;92.10;;;;;;5060008;28;20082;-68
2021/04/06 05:53:10;;;;;;;16.00;3.20;;;2.20;91.60;;;;;;5052854;28;20470;-68
2021/04/06 05:55:36;;;;;;;15.80;3.13;;;2.30;91.70;;;;;;5034068;28;20079;-68
2021/04/06 05:58:02;;;;;;;10.73;2.50;;;2.30;91.50;;;;;;5047309;28;20442;-68
2021/04/06 06:00:28;;;;;;;15.80;4.10;;;2.40;90.50;;;;;;5050598;28;20067;-67
2021/04/06 06:02:54;;;;;;;8.48;2.78;;;2.40;90.60;;;;;;5053911;28;20104;-67
2021/04/06 06:05:20;;;;;;;9.73;2.67;;;2.40;90.60;;;;;;5050242;28;20105;-69
2021/04/06 06:07:46;;;;;;;12.70;2.45;;;2.40;90.40;;;;;;5049081;28;20033;-69
2021/04/06 06:10:33;;;;;;;9.00;2.40;;;2.40;90.20;;;;;;5049282;28;20044;-68
2021/04/06 06:13:34;;;;;;;9.80;2.45;;;2.30;90.60;;;;;;5050920;28;20033;-67
2021/04/06 06:16:21;;;;;;;19.55;2.63;;;2.30;91.10;;;;;;4973966;28;20034;-68
2021/04/06 06:18:59;;;;;;;12.52;2.05;;;2.30;91.20;;;;;;5045546;28;20049;-68
2021/04/06 06:21:49;;;;;;;12.48;2.35;;;2.30;91.30;;;;;;5051523;28;20094;-67
2021/04/06 06:24:27;;;;;;;9.02;2.70;;;2.30;91.50;;;;;;5052399;28;20040;-68
2021/04/06 06:26:56;;;;;;;13.80;3.03;;;2.40;91.50;;;;;;5047386;28;20025;-67
2021/04/06 06:29:24;;;;;;;12.05;2.03;;;2.40;91.70;;;;;;5049755;28;20029;-68
2021/04/06 06:31:56;;;;;;;13.65;2.35;;;2.30;91.70;;;;;;5047659;28;20430;-68
2021/04/06 06:34:35;;;;;;;;;;;2.30;91.80;;;;;;5050030;28;20056;-68
2021/04/06 06:37:07;;;;;;;14.00;2.53;;;2.30;91.90;;;;;;5050520;28;19913;-68
2021/04/06 06:39:34;;;;;;;12.75;3.17;;;2.30;91.90;;;;;;5049537;28;20029;-68
2021/04/06 06:42:04;;;;;;;19.45;2.90;;;2.30;91.80;;;;;;5048827;28;20148;-68
2021/04/06 06:44:34;;;;;;;11.38;2.47;;;2.30;91.80;;;;;;5054842;28;20021;-69
2021/04/06 06:47:17;;;;;;;13.95;3.95;;;2.30;92.00;;;;;;5048323;28;20027;-68
2021/04/06 06:49:44;;;;;;;15.82;2.78;;;2.30;91.90;;;;;;5048690;28;20246;-68
2021/04/06 06:52:22;;;;;;;11.77;2.67;;;2.20;92.00;;;;;;5048274;28;20063;-69
2021/04/06 06:54:56;;;;;;;14.20;2.53;;;2.30;92.20;;;;;;5049065;28;20028;-68
2021/04/06 06:57:31;;;;;;;17.00;3.42;;;2.30;92.40;;;;;;5048682;28;20465;-68
2021/04/06 07:00:18;;;;;;;12.57;3.28;;;2.30;92.30;;;;;;5030315;28;20105;-68
2021/04/06 07:02:44;;;;;;;17.83;3.10;;;2.40;91.80;;;;;;5030086;28;20094;-68
2021/04/06 07:05:16;;;;;;;12.15;2.55;;;2.50;91.60;;;;;;5049134;28;20037;-68
2021/04/06 07:08:05;;;;;;;11.57;2.20;;;2.60;91.20;;;;;;5049378;28;20482;-68
2021/04/06 07:10:37;;;;;;;11.27;2.05;;;2.70;90.80;;;;;;5048241;28;20091;-68
2021/04/06 07:13:07;;;;;;;8.85;2.22;;;2.70;90.40;;;;;;5031073;28;20037;-68
2021/04/06 07:15:36;;;;;;;15.77;3.15;;;2.80;90.60;;;;;;5030327;28;20025;-68
2021/04/06 07:18:06;;;;;;;7.65;2.08;;;2.80;90.90;;;;;;5045490;28;20040;-68
2021/04/06 07:20:36;;;;;;;16.27;2.72;;;2.90;90.20;;;;;;5048452;28;20033;-68
2021/04/06 07:23:06;;;;;;;14.95;2.25;;;2.80;90.10;;;;;;5049565;28;20094;-68
2021/04/06 07:25:32;;;;;;;16.25;2.78;;;2.70;91.00;;;;;;5047597;28;20039;-68
2021/04/06 07:28:00;;;;;;;10.07;2.55;;;2.50;91.30;;;;;;5049971;28;20510;-69
2021/04/06 07:30:26;;;;;;;9.93;2.20;;;2.50;91.80;;;;;;5047615;28;20025;-67
2021/04/06 07:32:52;;;;;;;10.07;2.22;;;2.40;91.90;;;;;;5046568;28;20583;-68
2021/04/06 07:35:18;;;;;;;14.23;2.65;;;2.30;92.10;;;;;;5050376;28;20033;-68
2021/04/06 07:37:45;;;;;;;13.20;2.78;;;2.30;92.00;;;;;;5050780;28;20122;-69
2021/04/06 07:40:15;;;;;;;10.40;2.72;;;2.20;92.00;;;;;;5049264;28;20052;-68
2021/04/06 07:42:46;;;;;;;13.20;2.65;;;2.20;92.20;;;;;;5030586;28;20049;-68
2021/04/06 07:45:24;;;;;;;15.07;2.50;;;2.10;92.60;;;;;;5047282;28;20040;-69
2021/04/06 07:47:50;;;;;;;10.70;2.33;;;2.10;92.60;;;;;;5048901;28;20117;-68
2021/04/06 07:50:38;;;;;;;11.30;2.10;;;2.10;92.60;;;;;;5028956;28;20534;-67
2021/04/06 07:53:52;;;;;;;11.73;2.60;;;2.20;92.80;;;;;;5048087;28;20037;-68
2021/04/06 07:56:46;;;;;;;10.55;2.28;;;2.40;92.30;;;;;;5013307;28;20056;-68
2021/04/06 07:59:21;;;;;;;11.00;2.30;;;2.50;92.40;;;;;;5049052;28;20029;-68
2021/04/06 08:01:58;;;;;;;11.25;2.08;;;2.70;91.80;;;;;;5047539;28;20047;-67
2021/04/06 08:04:42;;;;;;;6.15;2.15;;;2.80;91.70;;;;;;5051416;28;20382;-67
2021/04/06 08:07:36;;;;;;;9.68;2.10;;;2.80;91.40;;;;;;5030833;28;20120;-67
2021/04/06 08:10:13;;;;;;;11.50;1.83;;;2.90;91.10;;;;;;5047116;28;20140;-67
2021/04/06 08:12:40;;;;;;;10.85;2.03;;;3.00;90.40;;;;;;5052465;28;20122;-67
2021/04/06 08:15:15;;;;;;;10.27;2.25;;;3.20;89.40;;;;;;5053306;28;20056;-69
2021/04/06 08:17:51;;;;;;;10.45;2.00;;;3.30;88.00;;;;;;5049685;28;20033;-66
2021/04/06 08:20:33;;;;;;;17.67;1.98;;;3.40;87.30;;;;;;5050671;28;20024;-67
2021/04/06 08:23:04;;;;;;;15.65;2.05;;;3.40;87.30;;;;;;5053739;28;20071;-67
2021/04/06 08:25:29;;;;;;;5.90;1.65;;;3.50;85.80;;;;;;5052064;28;20021;-66
2021/04/06 08:28:25;;;;;;;10.77;1.95;;;3.60;86.70;;;;;;5037025;28;20025;-66
2021/04/06 08:30:51;;;;;;;7.70;1.92;;;3.50;86.70;;;;;;5047793;28;20052;-67
2021/04/06 08:33:17;;;;;;;6.20;1.27;;;3.50;86.70;;;;;;5051517;28;20029;-68
2021/04/06 08:38:28;;;;;;;7.20;1.15;;;3.10;90.10;;;;;;5050311;28;20040;-68
2021/04/06 08:40:54;;;;;;;5.53;1.13;;;3.10;90.10;;;;;;5053049;28;20080;-69
2021/04/06 08:43:25;;;;;;;4.82;1.42;;;3.00;90.60;;;;;;5051623;28;20112;-69
2021/04/06 08:46:01;;;;;;;5.38;1.83;;;2.80;90.90;;;;;;5052362;28;20025;-68
2021/04/06 08:51:19;;;;;;;9.02;1.38;;;2.70;91.00;;;;;;5050800;28;20522;-68
2021/04/06 08:53:46;;;;;;;;;;;2.70;91.40;;;;;;5051409;28;20036;-68
2021/04/06 08:56:17;;;;;;;4.13;0.98;;;2.70;91.60;;;;;;5051065;28;20439;-68
2021/04/06 08:58:43;;;;;;;6.53;1.55;;;2.70;91.40;;;;;;5051169;28;20033;-68
2021/04/06 09:01:09;;;;;;;7.03;1.30;;;2.70;91.80;;;;;;5049247;28;20108;-68
2021/04/06 09:03:36;;;;;;;6.13;1.00;;;2.70;92.00;;;;;;5055212;28;20045;-68
2021/04/06 09:06:12;;;;;;;4.22;1.27;;;2.80;92.10;;;;;;5052130;28;20386;-69
2021/04/06 09:08:47;;;;;;;9.57;1.13;;;3.00;91.40;;;;;;5052304;28;20063;-69
2021/04/06 09:11:34;;;;;;;9.88;1.30;;;3.00;91.50;;;;;;5054321;28;20064;-69
2021/04/06 09:14:00;;;;;;;11.70;1.92;;;2.90;91.90;;;;;;5049547;28;20060;-69
2021/04/06 09:16:31;;;;;;;6.93;1.80;;;2.80;91.80;;;;;;5033122;28;20064;-69
2021/04/06 09:19:01;;;;;;;2.75;1.20;;;2.60;92.40;;;;;;5052147;28;20584;-69
2021/04/06 09:21:30;;;;;;;8.80;1.50;;;2.50;92.80;;;;;;5050626;28;20029;-69
2021/04/06 09:24:02;;;;;;;7.50;1.40;;;2.40;93.10;;;;;;5050502;28;21595;-69
2021/04/06 09:26:29;;;;;;;2.97;0.90;;;2.30;93.10;;;;;;5050670;28;20029;-69
2021/04/06 09:29:02;;;;;;;6.55;1.13;;;2.20;93.20;;;;;;5052253;28;20074;-69
2021/04/06 09:31:29;;;;;;;4.07;1.00;;;2.30;93.20;;;;;;5048495;28;20033;-69
2021/04/06 09:34:15;;;;;;;7.78;0.98;;;2.20;93.20;;;;;;5048013;28;20072;-69
2021/04/06 09:36:44;;;;;;;8.93;2.30;;;2.20;93.50;;;;;;5051600;28;20061;-69
2021/04/06 09:39:12;;;;;;;4.05;1.10;;;2.20;93.70;;;;;;5049131;28;20051;-69
2021/04/06 09:41:41;;;;;;;6.22;1.13;;;2.30;94.00;;;;;;5050539;28;20666;-69
2021/04/06 09:44:14;;;;;;;9.80;1.92;;;2.30;93.90;;;;;;5050383;28;20387;-69
2021/04/06 09:46:46;;;;;;;8.35;2.10;;;2.30;94.00;;;;;;5049915;28;20449;-68
2021/04/06 09:49:12;;;;;;;;;;;2.40;94.60;;;;;;5050891;28;20025;-69
2021/04/06 09:51:43;;;;;;;11.45;3.38;;;2.50;94.90;;;;;;5048517;28;19913;-68
2021/04/06 09:54:10;;;;;;;14.80;3.15;;;2.60;94.80;;;;;;5051495;28;20025;-69
2021/04/06 09:56:38;;;;;;;13.45;3.55;;;2.80;94.50;;;;;;5049098;28;20041;-69
2021/04/06 09:59:06;;;;;;;14.15;2.67;;;2.90;94.50;;;;;;5049791;28;20524;-69
2021/04/06 10:01:32;;;;;;;14.43;2.78;;;3.10;94.60;;;;;;5049015;28;20048;-70
2021/04/06 10:04:02;;;;;;;10.60;1.85;;;3.10;94.30;;;;;;5051038;28;20715;-69
2021/04/06 10:06:37;;;;;;;6.00;1.77;;;3.10;93.30;;;;;;5049904;28;20051;-69
2021/04/06 10:09:24;;;;;;;7.25;1.83;;;2.90;93.40;;;;;;5048830;28;20124;-68
2021/04/06 10:11:51;;;;;;;8.38;2.05;;;2.90;93.90;;;;;;5050655;28;20039;-69
2021/04/06 10:14:17;;;;;;;5.90;1.88;;;2.80;94.20;;;;;;5036821;28;20461;-69
2021/04/06 10:16:43;;;;;;;8.30;2.35;;;2.80;94.30;;;;;;5052503;28;20479;-69
2021/04/06 10:19:23;;;;;;;7.70;2.60;;;2.80;94.40;;;;;;5050192;28;20029;-68
2021/04/06 10:22:00;;;;;;;12.85;2.92;;;2.90;94.40;;;;;;5051881;28;20051;-69
2021/04/06 10:24:27;;;;;;;7.70;2.30;;;2.90;94.80;;;;;;5049422;28;20039;-68
2021/04/06 10:27:13;;;;;;;14.82;2.40;;;3.00;94.00;;;;;;5046449;28;20017;-69
2021/04/06 10:29:40;;;;;;;12.57;2.00;;;3.00;94.60;;;;;;5031689;28;20155;-68
2021/04/06 10:32:07;;;;;;;12.63;1.83;;;3.00;94.10;;;;;;5047957;28;20105;-68
2021/04/06 10:34:33;;;;;;;11.82;1.90;;;3.00;94.40;;;;;;5050462;28;20035;-68
2021/04/06 10:37:08;;;;;;;7.03;1.65;;;3.00;94.40;;;;;;5051115;28;20115;-69
2021/04/06 10:39:42;;;;;;;9.05;2.17;;;3.10;93.60;;;;;;5030992;28;20123;-68
2021/04/06 10:42:11;;;;;;;7.50;1.92;;;3.00;94.40;;;;;;5051163;28;20040;-68
2021/04/06 10:44:38;;;;;;;8.85;1.98;;;3.10;94.50;;;;;;5049562;28;21493;-68
2021/04/06 10:47:04;;;;;;;11.93;3.75;;;3.20;93.80;;;;;;5048487;28;20123;-68
2021/04/06 10:49:30;;;;;;;6.38;1.90;;;3.30;94.60;;;;;;5048347;28;20100;-68
2021/04/06 10:51:59;;;;;;;8.57;2.33;;;3.30;95.00;;;;;;5047974;28;20451;-69
2021/04/06 10:54:25;;;;;;;9.32;1.92;;;3.50;94.20;;;;;;5049141;28;20033;-69
2021/04/06 10:56:54;;;;;;;8.88;2.10;;;3.70;93.00;;;;;;5048735;28;20055;-69
2021/04/06 10:59:38;;;;;;;8.73;2.00;;;3.60;93.00;;;;;;5047811;28;20110;-70
2021/04/06 11:02:04;;;;;;;7.28;1.80;;;3.50;93.40;;;;;;5031136;28;20079;-69
2021/04/06 11:04:39;;;;;;;9.07;1.17;;;3.30;93.60;;;;;;5049371;28;20047;-69
2021/04/06 11:07:06;;;;;;;10.20;2.55;;;3.10;92.80;;;;;;5050356;28;20025;-69
2021/04/06 11:09:40;;;;;;;6.45;1.35;;;2.90;92.60;;;;;;5048334;28;20151;-68
2021/04/06 11:12:08;;;;;;;8.45;1.27;;;2.70;93.00;;;;;;5049334;28;20044;-69
2021/04/06 11:14:35;;;;;;;6.53;0.90;;;2.60;92.80;;;;;;5047695;28;20120;-68
2021/04/06 11:17:05;;;;;;;5.90;1.10;;;2.60;93.90;;;;;;5030185;28;20482;-70
2021/04/06 11:19:46;;;;;;;5.20;1.52;;;2.70;94.50;;;;;;5071013;22;20059;-71
2021/04/06 11:22:18;;;;;;;3.10;1.08;;;2.90;94.30;;;;;;5029465;28;20036;-72
2021/04/06 11:24:46;;;;;;;5.05;1.25;;;3.20;93.80;;;;;;5054287;28;20025;-71
2021/04/06 11:27:18;;;;;;;5.53;1.13;;;3.50;95.20;;;;;;5049351;28;20029;-70
2021/04/06 11:29:45;;;;;;;5.68;1.10;;;4.20;95.20;;;;;;5033414;28;20355;-70
2021/04/06 11:32:14;;;;;;;4.10;0.90;;;4.40;90.40;;;;;;5027464;28;20041;-72
2021/04/06 11:34:41;;;;;;;6.50;1.60;;;4.30;90.80;;;;;;5030678;28;20025;-71
2021/04/06 11:37:08;;;;;;;5.10;1.05;;;4.00;92.30;;;;;;5015384;28;20033;-70
2021/04/06 11:39:36;;;;;;;10.18;1.23;;;3.90;90.80;;;;;;5029978;28;20033;-71
2021/04/06 11:42:04;;;;;;;6.78;1.10;;;4.10;92.60;;;;;;5032037;28;20073;-71
2021/04/06 11:44:30;;;;;;;6.25;1.50;;;4.60;93.10;;;;;;5031820;28;20024;-71
2021/04/06 11:46:58;;;;;;;4.28;1.25;;;5.20;93.00;;;;;;5031844;28;20474;-71
2021/04/06 11:49:23;;;;;;;5.82;1.40;;;5.60;89.30;;;;;;5031168;28;20029;-71
2021/04/06 11:51:49;;;;;;;6.20;1.58;;;5.80;90.50;;;;;;5030293;28;20555;-72
2021/04/06 11:54:17;;;;;;;6.80;1.63;;;6.00;90.30;;;;;;5032366;28;20061;-71
2021/04/06 11:56:45;;;;;;;6.20;1.20;;;5.90;90.30;;;;;;5030442;28;20036;-72
2021/04/06 11:59:12;;;;;;;10.82;1.77;;;5.70;90.30;;;;;;5032866;28;20042;-72
2021/04/06 12:01:38;;;;;;;6.50;1.70;;;5.50;90.30;;;;;;5031592;28;20022;-71
2021/04/06 12:04:04;;;;;;;5.60;1.45;;;5.30;90.40;;;;;;5029125;28;20068;-71
2021/04/06 12:06:31;;;;;;;7.38;1.45;;;5.10;88.20;;;;;;5030918;28;20022;-69
2021/04/06 12:08:57;;;;;;;8.32;1.48;;;5.10;88.20;;;;;;5030494;28;20478;-70
2021/04/06 12:11:23;;;;;;;7.68;1.48;;;4.80;90.20;;;;;;5031626;28;20025;-71
2021/04/06 12:13:49;;;;;;;8.85;1.50;;;4.70;90.30;;;;;;5029658;28;20538;-70
2021/04/06 12:16:15;;;;;;;12.38;2.05;;;4.60;91.70;;;;;;5028671;28;20080;-70
2021/04/06 12:18:41;;;;;;;6.00;1.58;;;4.60;92.30;;;;;;5029738;28;20037;-71
2021/04/06 12:21:08;;;;;;;8.98;1.60;;;4.70;92.80;;;;;;5030026;28;20109;-71
2021/04/06 12:23:34;;;;;;;11.90;2.28;;;4.80;92.70;;;;;;5033853;28;20509;-70
2021/04/06 12:26:00;;;;;;;10.35;1.77;;;4.90;92.50;;;;;;5030797;28;20029;-70
2021/04/06 12:28:26;;;;;;;6.32;1.33;;;5.20;91.30;;;;;;5033125;28;20025;-71
2021/04/06 12:30:54;;;;;;;7.75;1.38;;;5.20;92.10;;;;;;5010637;28;20025;-70
2021/04/06 12:33:20;;;;;;;7.20;1.50;;;5.10;90.60;;;;;;5031906;28;20029;-71
2021/04/06 12:35:46;;;;;;;6.32;1.65;;;5.20;90.10;;;;;;5024972;28;20111;-71
2021/04/06 12:38:12;;;;;;;7.50;1.63;;;5.40;90.70;;;;;;5030852;28;20037;-70
2021/04/06 12:40:38;;;;;;;7.13;1.60;;;5.60;87.80;;;;;;5045177;28;20048;-70
2021/04/06 12:43:04;;;;;;;10.05;2.40;;;5.60;84.60;;;;;;5029676;28;20018;-70
2021/04/06 12:45:30;;;;;;;8.15;1.50;;;5.30;89.60;;;;;;5031111;28;20034;-71
2021/04/06 12:47:56;;;;;;;9.05;2.45;;;5.20;86.90;;;;;;5028365;28;20494;-70
2021/04/06 12:50:23;;;;;;;6.68;1.52;;;5.00;86.80;;;;;;5029699;28;20029;-71
2021/04/06 12:52:50;;;;;;;12.10;2.33;;;4.80;88.50;;;;;;5025695;28;20032;-70
2021/04/06 12:55:16;;;;;;;8.63;1.63;;;4.70;87.30;;;;;;5032832;28;20025;-71
2021/04/06 12:57:42;;;;;;;10.88;1.80;;;4.80;85.90;;;;;;5034705;28;20030;-69
2021/04/06 13:00:09;;;;;;;8.73;1.85;;;5.00;88.70;;;;;;5033894;28;20044;-70
2021/04/06 13:02:35;;;;;;;4.40;0.93;;;5.40;83.50;;;;;;5032925;28;20029;-71
2021/04/06 13:05:03;;;;;;;4.07;0.95;;;5.70;85.10;;;;;;5034488;28;20037;-71
2021/04/06 13:07:29;;;;;;;4.13;0.73;;;5.90;77.50;;;;;;5037155;28;20033;-71
2021/04/06 13:09:55;;;;;;;6.57;1.00;;;6.20;70.20;;;;;;5036963;28;20568;-71
2021/04/06 13:12:21;;;;;;;6.68;0.95;;;6.20;73.00;;;;;;5033544;28;20037;-72
2021/04/06 13:14:50;;;;;;;5.00;0.90;;;6.10;72.20;;;;;;5034401;28;20026;-70
2021/04/06 13:17:16;;;;;;;6.60;1.10;;;5.90;79.10;;;;;;5035297;28;20032;-71